Latest Weather Observations for Essendon Airport

IDV60901

Issued at 1:21 pm EDT Tuesday 21 November 2017 (issued every 10 minutes, with the page automatically refreshed every 10 minutes)

About weather observations | Map of Melbourne area stations | Latest observations for Melbourne area | Other Formats
Station Details ID: 086038 Name: ESSENDON AIRPORT Lat: -37.73 Lon: 144.91 Height: 78.4 m
Data from the previous 72 hours. | See also: Recent months at Essendon Airport
Date/Time
EDT
Temp
°C
App
Temp
°C
Dew
Point
°C
Rel
Hum
%
Delta-T
°C
Wind Press
QNH
hPa
Press
MSL
hPa
Rain since
9am
mm
Dir  Spd
km/h
Gust
km/h
Spd
kts
Gust
kts
21/01:00pm 31.9 27.6 6.9 21 13.6 NNE 19 32 10 17 1019.3 1019.2 0.0
21/12:30pm 31.5 28.8 9.1 25 12.6 NNE 13 32 7 17 1019.7 1019.6 0.0
21/12:00pm 29.4 25.5 7.3 25 11.9 N 17 26 9 14 1020.1 1020.0 0.0
21/11:30am 29.4 25.7 10.0 30 11.0 N 20 30 11 16 1020.5 1020.4 0.0
21/11:00am 28.3 24.6 10.0 32 10.3 NNE 20 26 11 14 1020.7 1020.6 0.0
21/10:30am 27.1 22.3 9.0 32 9.9 N 24 32 13 17 1020.8 1020.7 0.0
21/10:00am 26.4 21.3 9.3 34 9.4 N 26 35 14 19 1020.9 1020.8 0.0
21/09:30am 26.0 20.3 9.8 36 9.0 N 30 39 16 21 1021.0 1020.9 0.0
21/09:00am 24.1 19.0 9.3 39 8.0 N 26 41 14 22 1021.1 1021.0 0.0
21/08:30am 23.8 20.1 10.1 42 7.5 N 20 32 11 17 1021.3 1021.2 0.0
21/08:00am 23.0 21.1 10.4 45 6.9 NNE 11 15 6 8 1021.2 1021.1 0.0
21/07:30am 20.8 20.0 12.8 60 4.6 NNE 9 13 5 7 1020.8 1020.7 0.0
21/07:00am 18.9 19.2 15.0 78 2.3 NNE 7 9 4 5 1020.9 1020.8 0.0
21/06:30am 17.1 17.2 15.6 91 0.9 NNE 9 11 5 6 1020.5 1020.4 0.0
21/06:00am 16.6 17.1 15.5 93 0.6 N 7 9 4 5 1020.3 1020.2 0.0
21/05:30am 16.2 15.6 15.6 96 0.4 N 13 15 7 8 1019.9 1019.8 0.0
21/05:00am 16.2 16.7 14.9 92 0.7 NNW 6 7 3 4 1019.8 1019.7 0.0
21/04:30am 17.3 17.5 14.8 85 1.4 NNW 7 7 4 4 1019.6 1019.5 0.0
21/04:00am 17.5 16.8 15.3 87 1.3 NNW 13 17 7 9 1019.6 1019.5 0.0
21/03:30am 17.8 17.8 14.3 80 2.0 NNW 7 9 4 5 1019.6 1019.5 0.0
21/03:00am 18.7 18.8 13.8 73 2.8 WNW 6 9 3 5 1019.6 1019.5 0.0
21/02:30am 19.4 18.6 14.0 71 3.1 NW 11 15 6 8 1019.6 1019.5 0.0
21/02:00am 19.0 18.8 13.6 71 3.1 NW 7 9 4 5 1019.5 1019.4 0.0
21/01:30am 19.6 19.1 13.8 69 3.3 WNW 9 11 5 6 1019.7 1019.6 0.0
21/01:00am 20.0 19.4 13.5 66 3.7 NW 9 11 5 6 1019.9 1019.8 0.0
21/12:30am 20.5 19.2 13.7 65 3.9 WNW 13 17 7 9 1020.2 1020.1 0.0
21/12:00am 21.4 19.9 14.1 63 4.2 NW 15 20 8 11 1020.2 1020.1 0.0
 
Date/Time
EDT
Temp
°C
App
Temp
°C
Dew
Point
°C
Rel
Hum
%
Delta-T
°C
Wind Press
QNH
hPa
Press
MSL
hPa
Rain since
9am
mm
Dir  Spd
km/h
Gust
km/h
Spd
kts
Gust
kts
20/11:30pm 22.0 22.2 14.1 61 4.6 SSW 6 13 3 7 1020.2 1020.1 0.0
20/11:00pm 22.4 22.5 14.0 59 4.9 ESE 6 7 3 4 1020.1 1020.0 0.0
20/10:30pm 23.3 22.5 14.0 56 5.5 E 11 15 6 8 1020.2 1020.1 0.0
20/10:00pm 24.1 23.0 14.2 54 5.8 ESE 13 17 7 9 1020.3 1020.2 0.0
20/09:30pm 25.1 23.2 14.3 51 6.4 ESE 17 26 9 14 1020.1 1020.0 0.0
20/09:00pm 25.6 23.3 14.7 51 6.5 ESE 20 24 11 13 1019.9 1019.8 0.0
20/08:30pm 26.1 23.8 14.2 48 7.1 ESE 19 26 10 14 1019.7 1019.6 0.0
20/08:00pm 26.9 22.9 12.9 42 8.2 SE 26 39 14 21 1019.4 1019.3 0.0
20/07:30pm 27.8 23.1 13.3 40 8.6 SE 30 43 16 23 1019.2 1019.1 0.0
20/07:00pm 28.8 25.0 13.5 39 9.1 SSE 26 37 14 20 1018.9 1018.8 0.0
20/06:30pm 28.9 25.1 12.3 36 9.7 S 24 30 13 16 1018.6 1018.5 0.0
20/06:00pm 29.8 25.0 11.8 33 10.5 S 28 35 15 19 1018.6 1018.5 0.0
20/05:30pm 29.5 24.0 10.6 31 10.8 S 30 39 16 21 1018.7 1018.6 0.0
20/05:00pm 30.6 26.2 10.5 29 11.5 SSE 24 33 13 18 1018.7 1018.6 0.0
20/04:30pm 30.0 25.5 10.0 29 11.3 SSE 24 35 13 19 1019.0 1018.9 0.0
20/04:00pm 31.2 28.1 11.6 30 11.4 SSE 19 30 10 16 1019.3 1019.2 0.0
20/03:30pm 31.5 28.8 9.1 25 12.6 NE 13 24 7 13 1019.6 1019.5 0.0
20/03:00pm 30.2 27.4 8.6 26 12.0 ENE 13 22 7 12 1020.0 1019.9 0.0
20/02:30pm 30.9 29.3 10.3 28 11.8 SE 9 19 5 10 1020.4 1020.3 0.0
20/02:00pm 30.3 29.0 9.8 28 11.6 NE 7 20 4 11 1020.7 1020.6 0.0
20/01:30pm 29.5 27.0 9.6 29 11.2 NE 13 22 7 12 1021.1 1021.0 0.0
20/01:00pm 28.9 26.4 9.6 30 10.8 NE 13 32 7 17 1021.5 1021.4 0.0
20/12:30pm 29.4 26.0 10.5 31 10.8 N 19 26 10 14 1021.9 1021.8 0.0
20/12:00pm 28.7 24.2 9.9 31 10.5 N 24 33 13 18 1022.2 1022.1 0.0
20/11:30am 27.7 23.2 10.0 33 9.9 N 24 33 13 18 1022.6 1022.5 0.0
20/11:00am 27.0 23.4 10.7 36 9.2 N 20 30 11 16 1022.9 1022.8 0.0
20/10:30am 25.6 21.0 9.8 37 8.7 N 24 33 13 18 1023.3 1023.2 0.0
20/10:00am 24.4 19.9 9.9 40 7.9 N 24 35 13 19 1023.4 1023.3 0.0
20/09:30am 24.3 18.1 9.5 39 8.1 N 32 43 17 23 1023.3 1023.2 0.0
20/09:03am 23.9 18.3 10.2 42 7.6 N 30 48 16 26 1023.3 1023.2 0.0
20/09:00am 23.4 17.4 10.1 43 7.3 N 32 48 17 26 1023.2 1023.1 0.0
20/08:59am 23.3 17.7 10.0 43 7.3 N 30 48 16 26 1023.2 1023.1 0.0
20/08:30am 22.3 16.4 10.5 47 6.5 N 32 46 17 25 1023.3 1023.2 0.0
20/08:00am 22.3 19.1 11.4 50 6.1 N 19 32 10 17 1023.1 1023.0 0.0
20/07:30am 21.1 19.6 13.0 60 4.6 N 13 19 7 10 1022.9 1022.8 0.0
20/07:00am 18.0 19.8 15.6 86 1.4 CALM 0 0 0 0 1022.6 1022.5 0.0
20/06:30am 15.9 16.3 15.3 96 0.3 NE 7 9 4 5 1022.4 1022.3 0.0
20/06:00am 15.7 16.3 15.2 97 0.3 SW 6 9 3 5 1021.9 1021.8 0.0
20/05:30am 15.4 15.4 15.2 99 0.1 NNW 9 11 5 6 1021.5 1021.4 0.0
20/05:00am 15.3 14.8 15.0 98 0.2 NNW 11 13 6 7 1021.2 1021.1 0.0
20/04:30am 15.9 15.9 15.1 95 0.5 NNW 9 9 5 5 1021.1 1021.0 0.0
20/04:00am 15.8 16.0 14.7 93 0.6 NNW 7 11 4 6 1021.2 1021.1 0.0
20/03:30am 16.2 16.4 14.6 90 0.9 NW 7 7 4 4 1021.0 1020.9 0.0
20/03:00am 17.3 17.6 15.1 87 1.3 NNW 7 9 4 5 1020.9 1020.8 0.0
20/02:30am 17.7 17.3 15.3 86 1.4 NW 11 13 6 7 1020.7 1020.6 0.0
20/02:00am 18.2 18.0 14.7 80 2.0 NW 9 13 5 7 1020.6 1020.5 0.0
20/01:30am 18.6 17.6 14.7 78 2.3 NW 13 15 7 8 1020.7 1020.6 0.0
20/01:00am 18.5 18.1 14.2 76 2.5 NW 9 11 5 6 1020.6 1020.5 0.0
20/12:30am 18.9 18.0 12.6 67 3.5 WNW 9 13 5 7 1020.7 1020.6 0.0
20/12:00am 20.6 21.6 13.1 62 4.3 CALM 0 0 0 0 1020.6 1020.5 0.0
 
Date/Time
EDT
Temp
°C
App
Temp
°C
Dew
Point
°C
Rel
Hum
%
Delta-T
°C
Wind Press
QNH
hPa
Press
MSL
hPa
Rain since
9am
mm
Dir  Spd
km/h
Gust
km/h
Spd
kts
Gust
kts
19/11:30pm 20.4 21.3 12.9 62 4.3 CALM 0 2 0 1 1020.7 1020.6 0.0
19/11:00pm 20.3 19.8 12.8 62 4.2 SE 7 9 4 5 1020.6 1020.5 0.0
19/10:30pm 21.1 19.8 12.5 58 4.9 SE 11 15 6 8 1020.6 1020.5 0.0
19/10:00pm 21.9 20.2 12.5 55 5.3 ESE 13 17 7 9 1020.3 1020.2 0.0
19/09:30pm 22.2 20.6 12.7 55 5.4 ESE 13 19 7 10 1020.4 1020.3 0.0
19/09:00pm 22.9 21.0 13.1 54 5.6 ESE 15 20 8 11 1020.1 1020.0 0.0
19/08:30pm 23.4 20.2 13.0 52 6.0 SE 22 30 12 16 1019.9 1019.8 0.0
19/08:00pm 24.2 20.5 12.8 49 6.6 SE 24 32 13 17 1019.8 1019.7 0.0
19/07:30pm 24.8 20.7 12.7 47 7.0 SE 26 35 14 19 1019.7 1019.6 0.0
19/07:00pm 25.5 21.4 12.7 45 7.4 SSE 26 33 14 18 1019.6 1019.5 0.0
19/06:30pm 26.3 23.3 13.8 46 7.4 SSE 22 32 12 17 1019.3 1019.2 0.0
19/06:00pm 25.3 22.3 14.7 51 6.3 S 24 33 13 18 1019.2 1019.1 0.0
19/05:30pm 25.9 22.8 14.4 49 6.9 S 24 33 13 18 1019.1 1019.0 0.0
19/05:00pm 26.1 22.6 14.6 49 6.9 S 26 33 14 18 1019.3 1019.2 0.0
19/04:30pm 27.9 24.8 14.5 44 8.1 S 24 39 13 21 1019.1 1019.0 0.0
19/04:00pm 26.0 21.1 13.8 47 7.2 SSE 32 39 17 21 1019.3 1019.2 0.0
19/03:30pm 27.7 25.2 10.9 35 9.6 ENE 15 22 8 12 1019.3 1019.2 0.0
19/03:00pm 29.9 27.6 11.9 33 10.5 NNE 15 24 8 13 1019.5 1019.4 0.0
19/02:30pm 29.2 27.6 11.7 34 10.2 E 11 20 6 11 1019.7 1019.6 0.0
19/02:00pm 27.7 24.9 11.3 36 9.4 NE 17 26 9 14 1020.0 1019.9 0.0
19/01:30pm 28.1 25.9 12.0 36 9.3 NNE 15 26 8 14 1020.2 1020.1 0.0
19/01:00pm 27.9 26.0 13.1 40 8.7 NE 15 28 8 15 1020.2 1020.1 0.0
19/12:30pm 26.9 23.3 11.8 39 8.7 NE 22 30 12 16 1020.4 1020.3 0.0
19/12:00pm 25.6 22.3 11.7 42 7.9 N 20 32 11 17 1020.9 1020.8 0.0
19/11:30am 27.4 25.3 14.8 46 7.6 NNE 19 37 10 20 1021.0 1020.9 0.0
19/11:00am 25.3 22.2 13.5 48 6.9 NNE 22 32 12 17 1021.2 1021.1 0.0
19/10:30am 24.7 22.9 14.5 53 6.1 N 17 30 9 16 1021.2 1021.1 0.0
19/10:00am 22.6 21.9 14.2 59 4.9 NNE 11 19 6 10 1021.3 1021.2 0.0
19/09:30am 22.0 22.2 15.8 68 3.7 E 9 13 5 7 1021.2 1021.1 0.0
19/09:00am 21.0 21.5 15.1 69 3.5 ENE 6 9 3 5 1021.2 1021.1 2.0
19/08:30am 20.2 20.6 15.4 74 2.8 NE 7 9 4 5 1021.0 1020.9 2.0
19/08:00am 19.4 21.0 19.2 99 0.1 ENE 9 11 5 6 1020.7 1020.6 2.0
19/07:30am 17.1 17.8 17.1 100 0.0 NE 9 11 5 6 1020.3 1020.2 2.0
19/07:00am 15.5 15.6 15.5 100 0.0 NE 9 13 5 7 1019.9 1019.8 2.0
19/06:30am 14.1 14.1 14.1 100 0.0 E 7 9 4 5 1019.5 1019.4 2.0
19/06:00am 13.5 12.9 13.5 100 0.0 ENE 9 13 5 7 1019.2 1019.1 2.0
19/05:30am 13.6 13.0 13.6 100 0.0 E 9 11 5 6 1018.7 1018.6 2.0
19/05:00am 14.1 14.1 14.1 100 0.0 SSE 7 9 4 5 1018.6 1018.5 2.0
19/04:30am 14.8 16.4 14.8 100 0.0 CALM 0 0 0 0 1018.6 1018.5 2.0
19/04:00am 14.7 15.1 14.7 100 0.0 S 6 7 3 4 1018.6 1018.5 2.0
19/03:30am 14.7 16.2 14.7 100 0.0 CALM 0 0 0 0 1018.5 1018.4 2.0
19/03:00am 15.0 16.2 15.0 100 0.0 NE 2 6 1 3 1018.4 1018.3 2.0
19/02:30am 15.5 16.0 15.5 100 0.0 N 7 9 4 5 1018.4 1018.3 2.0
19/02:00am 15.6 15.7 15.6 100 0.0 NNW 9 11 5 6 1018.6 1018.5 2.0
19/01:30am 16.1 18.1 16.1 100 0.0 CALM 0 0 0 0 1018.9 1018.8 2.0
19/01:00am 16.0 16.3 16.0 100 0.0 NNW 9 11 5 6 1018.8 1018.7 2.0
19/12:30am 16.3 17.7 16.3 100 0.0 N 4 6 2 3 1018.7 1018.6 2.0
19/12:00am 16.1 16.4 16.1 100 0.0 N 9 9 5 5 1018.7 1018.6 2.0
 
Date/Time
EDT
Temp
°C
App
Temp
°C
Dew
Point
°C
Rel
Hum
%
Delta-T
°C
Wind Press
QNH
hPa
Press
MSL
hPa
Rain since
9am
mm
Dir  Spd
km/h
Gust
km/h
Spd
kts
Gust
kts
18/11:30pm 16.2 16.9 16.2 100 0.0 ESE 7 9 4 5 1018.6 1018.5 2.0
18/11:00pm 16.8 18.4 16.8 100 0.0 SW 4 9 2 5 1018.5 1018.4 2.0
18/10:30pm 16.6 18.5 16.6 100 0.0 SSW 2 7 1 4 1018.1 1018.0 2.0
18/10:00pm 17.1 17.8 17.1 100 0.0 NE 9 9 5 5 1017.9 1017.8 2.0
18/09:30pm 17.4 18.2 17.4 100 0.0 NE 9 13 5 7 1017.6 1017.5 2.0
18/09:00pm 17.3 17.7 17.3 100 0.0 ENE 11 11 6 6 1017.2 1017.1 2.0
18/08:30pm 18.1 19.2 17.9 99 0.1 E 9 13 5 7 1017.0 1016.9 2.0
18/08:00pm 18.8 19.4 17.8 94 0.6 E 11 15 6 8 1016.6 1016.5 2.0
18/07:30pm 19.1 20.0 18.4 96 0.4 S 11 13 6 7 1016.1 1016.0 2.0
18/07:00pm 19.0 19.1 17.5 91 0.9 N 13 17 7 9 1015.9 1015.8 2.0
18/06:30pm 19.1 19.0 16.9 87 1.3 NNE 13 17 7 9 1016.8 1016.7 1.0
18/06:00pm 19.9 19.2 16.3 80 2.2 ESE 15 20 8 11 1017.0 1016.9 0.6
18/05:30pm 20.1 18.3 16.1 78 2.4 E 20 32 11 17 1016.8 1016.7 0.6
18/05:00pm 20.6 16.4 16.2 76 2.6 ESE 33 52 18 28 1015.8 1015.7 0.6
18/04:58pm 21.0 17.4 16.2 74 2.9 ESE 30 48 16 26 1015.8 1015.7 0.4
18/04:30pm 24.9 20.9 11.8 44 7.5 SSE 24 33 13 18 1014.6 1014.6 0.2
18/04:00pm 25.5 22.7 14.3 50 6.7 SSE 22 37 12 20 1014.7 1014.7 0.2
18/03:30pm 27.2 23.6 13.2 42 8.3 S 24 30 13 16 1014.6 1014.6 0.2
18/03:00pm 26.5 23.2 12.9 43 8.0 S 22 30 12 16 1014.8 1014.8 0.2
18/02:30pm 27.9 25.5 11.5 36 9.4 NE 15 26 8 14 1014.9 1014.9 0.2
18/02:00pm 27.6 25.4 12.0 38 9.0 NNE 15 22 8 12 1015.4 1015.3 0.2
18/01:30pm 27.9 24.9 11.9 37 9.3 NE 19 26 10 14 1015.7 1015.6 0.2

Latest Capital City Observations: Canberra | Sydney | Melbourne | Brisbane | Adelaide | Perth | Hobart | Darwin

Other Formats:

Comma delimited format used in spreadsheet applications
http://www.bom.gov.au/fwo/IDV60901/IDV60901.95866.axf

JavaScript Object Notation format (JSON) in row-major order
http://www.bom.gov.au/fwo/IDV60901/IDV60901.95866.json